Gladstone Airport
YGLA : rendu visible

Aérodrome :











RETROUVEZ-NOUS SUR...

 
LOGIN :

S'inscrire | Disclaimer

   EN    FR    IT 

 









Légende :    VFR   VFR Marginal   IFR   IFR Intensif   IFR Très Intensif
Visi : 
Plafond : 
>= 8 km
>= 3000ft
5 à 8 km
1000 à 3000 ft
1500m à 5 km
500 à 1000 ft
800 à 1500m
200 à 500 ft
< 800m
< 200 ft
Symboles :   Orages  Brouillard  Fortes neiges  Fortes précipitations  Vent > 20 kt






- Altitude de l'aérodrome : 64 ft
- Code IATA : GLT


YGLA - Gladstone

DERNIER METAR :
  • 310100Z AUTO 14007KT 9999 // OVC064 23/14 Q1021

METARs EXPIRÉS :
  • 310030Z AUTO 13009KT 9999 // BKN064 OVC073 22/14 Q1021
  • 310000Z AUTO 13007KT 9999 // OVC062 21/14 Q1022
  • 302330Z AUTO 18005KT 9999 // OVC062 OVC073 21/14 Q1022
  • 302300Z AUTO 19004KT 9999 // OVC064 19/14 Q1022
  • 302230Z AUTO 21005KT 9999 // OVC066 18/13 Q1022 RF00.0/000.0

TAF TAF YGLA
Valide du 31 à 00h jusqu'au 31 à 12h UTC


302251Z 3100/3112 13008KT 9999 SCT025 BKN050
FM310200 08008KT 9999 SCT030
FM310900 12007KT 9999 SCT025
FIR YBBB / Océanie



MET'MAP, la Météo Aéronautique d'un coup d'oeil ! - Copyright ORBIFLY Décembre 2007 - Disclaimer

ORBIFLY MET'MAP TEAM :

Programmation & Développement : Alexandra Zaïnal
Sur une idée originale de : Baudouin d'Aumeries
Assistance à la programmation : Marc-Olivier Méhu
Soutien technique & logistique : Manuel Goepfert

Contact : metmap@orbifly.com




SOURCES & CREDITS :

   NOAA       Earth
Advisory